• Join FlightAware (Why Join?)
  • Login
  • US Flag 
08:52AM EDT


 

Airport Tracker/Info


-or-


 

Live Flight TrackerFlight Track Log ✈ LXJ541 ✈ 28-Apr-2013 ✈ KACK - KPBI

Flight Track Log - Related Links

Times and Time Zones

All times are in EDT time to prevent confusion due to time zone crossing. See the LXJ541 flight status page for this flight to view local times or setup timezone preferences in your user account.

Time Position Orientation Groundspeed Altitude Reporting Facility
EDT Latitude Longitude Course Direction KTS MPH feet Rate Location/Type
03:58PM 41.2139 -70.2436 264° West 256 295 5,700  Level Boston Center
03:59PM 41.2833 -70.2689 345° North 192 221 8,400 2,460 Climbing Boston Center
04:00PM 41.3203 -70.3478 302° West 237 273 10,700 2,940 Climbing Boston Center
04:01PM 41.2933 -70.4731 254° West 277 319 14,300 3,480 Climbing Boston Center
04:02PM 41.3089 -70.9313 252° West  Level FlightAware Approximate
04:02PM 41.2597 -70.5844 248° West 314 361 17,700  Level Boston Center
04:03PM 41.2203 -70.7319 250° West 360 414 21,400 3,180 Climbing Boston Center
04:04PM 41.1828 -70.8681 250° West 377 434 24,100 2,460 Climbing Boston Center
04:05PM 41.1450 -71.0067 250° West 390 449 26,400 2,100 Climbing Boston Center
04:06PM 41.1050 -71.1481 249° West 409 471 28,400 1,800 Climbing Boston Center
04:07PM 41.0628 -71.2978 250° West 421 484 30,100 1,740 Climbing Boston Center
04:08PM 41.0247 -71.4469 251° West 431 496 31,900 1,740 Climbing Boston Center
04:09PM 40.9739 -71.5878 244° Southwest 423 487 33,600 1,680 Climbing Boston Center
04:10PM 40.8997 -71.7181 233° Southwest 434 499 35,300 1,800 Climbing Boston Center
04:11PM 40.8192 -71.8367 228° Southwest 441 507 37,300 1,680 Climbing Boston Center
04:12PM 40.7444 -71.9333 224° Southwest 435 501 38,700 1,200 Climbing Boston Center
04:13PM 40.6639 -72.0433 226° Southwest 429 494 39,800 1,020 Climbing Boston Center
04:14PM 40.5869 -72.1614 229° Southwest 429 494 40,800 900 Climbing Boston Center
04:15PM 40.5039 -72.2736 226° Southwest 434 499 41,600 840 Climbing Boston Center
04:16PM 40.4247 -72.3883 228° Southwest 429 494 42,500 600 Climbing Boston Center
04:17PM 40.3311 -72.5272 229° Southwest 424 488 43,000 360 Climbing Boston Center
04:18PM 40.2497 -72.6439 228° Southwest 426 490 43,500 420 Climbing Boston Center
04:19PM 40.1450 -72.7983 228° Southwest 435 501 44,000 420 Climbing Boston Center
04:21PM 39.9861 -73.0300 228° Southwest 411 473 44,800 300 Climbing Washington Center
04:22PM 39.9031 -73.1492 228° Southwest 457 526 45,000 60 Climbing Washington Center
04:23PM 39.8181 -73.2656 226° Southwest 449 517 45,000  Level Washington Center
04:24PM 39.7369 -73.3842 228° Southwest 441 507 45,000  Level Washington Center
04:25PM 39.6575 -73.4864 225° Southwest 454 522 45,000  Level Washington Center
04:26PM 39.5739 -73.6019 227° Southwest 449 517 45,000  Level Washington Center
04:27PM 39.4906 -73.7200 228° Southwest 449 517 45,000  Level Washington Center
04:28PM 39.4089 -73.8375 228° Southwest 449 517 45,000  Level Washington Center
04:29PM 39.3231 -73.9497 225° Southwest 449 517 45,000  Level Washington Center
04:30PM 39.2350 -74.0722 227° Southwest 449 517 45,000  Level Washington Center
04:31PM 39.1531 -74.1836 227° Southwest 449 517 45,000  Level Washington Center
04:32PM 39.0667 -74.3031 227° Southwest 449 517 45,000  Level Washington Center
04:33PM 38.9803 -74.4194 226° Southwest 449 517 45,000  Level Washington Center
04:34PM 38.8939 -74.5381 227° Southwest 449 517 45,000  Level Washington Center
04:35PM 38.8117 -74.6511 227° Southwest 449 517 45,000  Level Washington Center
04:36PM 38.7247 -74.7642 225° Southwest 449 517 45,000  Level Washington Center
04:37PM 38.6294 -74.8608 218° Southwest 449 517 45,000  Level Washington Center
04:38PM 38.5364 -74.9572 219° Southwest 442 509 45,000  Level Washington Center
04:39PM 38.4261 -75.0431 211° Southwest 447 514 45,000  Level Washington Center
04:40PM 38.3181 -75.1047 204° Southwest 442 509 45,000  Level Washington Center
04:41PM 38.1994 -75.1928 210° Southwest 442 509 45,000  Level Washington Center
04:42PM 38.0892 -75.2647 207° Southwest 442 509 45,000  Level Washington Center
04:43PM 37.9789 -75.3336 206° Southwest 447 514 45,000  Level Washington Center
04:44PM 37.8706 -75.4025 207° Southwest 447 514 45,000  Level Washington Center
04:45PM 37.7622 -75.4761 208° Southwest 447 514 45,000  Level Washington Center
04:46PM 37.6456 -75.5236 198° South 447 514 45,000  Level Washington Center
04:47PM 37.5244 -75.5578 193° South 447 514 45,000  Level Washington Center
04:48PM 37.4097 -75.6075 199° South 447 514 45,000  Level Washington Center
04:49PM 37.3014 -75.6781 207° Southwest 435 501 45,000  Level Washington Center
04:50PM 37.1989 -75.7483 209° Southwest 430 495 45,000  Level Washington Center
04:51PM 37.0947 -75.8183 208° Southwest 430 495 45,000  Level Washington Center
04:52PM 36.9903 -75.8883 208° Southwest 430 495 45,000  Level Washington Center
04:53PM 36.8919 -75.9503 207° Southwest 443 510 45,000  Level Washington Center
04:54PM 36.7811 -76.0042 201° Southwest 438 504 45,000  Level Washington Center
04:55PM 36.6664 -76.0528 199° South 438 504 45,000  Level Washington Center
04:56PM 36.5533 -76.0986 198° South 438 504 45,000  Level Washington Center
04:57PM 36.4386 -76.1419 197° South 433 498 45,000  Level Washington Center
04:58PM 36.3236 -76.1900 199° South 433 498 45,000  Level Washington Center
04:59PM 36.2147 -76.2306 197° South 428 493 45,000  Level Washington Center
05:00PM 36.0997 -76.2758 198° South 428 493 45,000  Level Washington Center
05:01PM 35.9847 -76.3211 198° South 428 493 45,000  Level Washington Center
05:02PM 35.8739 -76.3636 197° South 428 493 45,000  Level Washington Center
05:03PM 35.7589 -76.4086 198° South 428 493 45,000  Level Washington Center
05:04PM 35.6439 -76.4533 198° South 428 493 45,000  Level Washington Center
05:05PM 35.5289 -76.4931 196° South 428 493 45,000  Level Washington Center
05:06PM 35.4136 -76.5403 198° South 434 499 45,000  Level Washington Center
05:07PM 35.2986 -76.5819 196° South 434 499 45,000  Level Washington Center
05:08PM 35.1875 -76.6289 199° South 434 499 45,000  Level Washington Center
05:09PM 35.0703 -76.6758 198° South 434 499 45,000  Level Washington Center
05:10PM 34.9553 -76.7197 197° South 434 499 45,000  Level Washington Center
05:11PM 34.8378 -76.7636 197° South 439 505 45,000  Level Washington Center
05:12PM 34.7186 -76.8050 196° South 446 513 45,000 -60 Level Washington Center
05:13PM 34.6033 -76.8511 198° South 446 513 44,900  Descending Washington Center
05:14PM 34.4861 -76.8922 196° South 446 513 45,000  Climbing Washington Center
05:16PM 34.2653 -76.9783 198° South 431 496 45,000  Level Jacksonville Center
05:17PM 34.1597 -77.0458 208° Southwest 431 496 45,000  Level Jacksonville Center
05:18PM 34.0544 -77.1131 208° Southwest 431 496 45,000  Level Jacksonville Center
05:19PM 33.9469 -77.1828 208° Southwest 436 502 45,000  Level Jacksonville Center
05:20PM 33.8436 -77.2494 208° Southwest 436 502 45,000  Level Jacksonville Center
05:21PM 33.7361 -77.3186 208° Southwest 436 502 45,000  Level Jacksonville Center
05:22PM 33.6286 -77.3878 208° Southwest 436 502 45,000  Level Jacksonville Center
05:23PM 33.5183 -77.4444 203° Southwest 441 507 45,000  Level Jacksonville Center
05:24PM 33.4036 -77.4939 200° South 441 507 45,000  Level Jacksonville Center
05:25PM 33.2892 -77.5481 202° Southwest 441 507 45,000  Level Jacksonville Center
05:26PM 33.1725 -77.5997 200° South 441 507 45,000  Level Jacksonville Center
05:27PM 33.0575 -77.6486 200° South 441 507 45,000  Level Jacksonville Center
05:28PM 32.9428 -77.6997 201° Southwest 441 507 45,000  Level Jacksonville Center
05:29PM 32.8281 -77.7483 200° South 441 507 45,000  Level Jacksonville Center
05:30PM 32.7111 -77.8019 201° Southwest 441 507 45,000  Level Jacksonville Center
05:31PM 32.5983 -77.8503 200° South 441 507 45,000  Level Jacksonville Center
05:32PM 32.4833 -77.8961 199° South 441 507 45,000  Level Jacksonville Center
05:33PM 32.3661 -77.9442 199° South 441 507 45,000  Level Jacksonville Center
05:34PM 32.2494 -77.9997 202° Southwest 446 513 45,000  Level Jacksonville Center
05:35PM 32.1344 -78.0500 200° South 446 513 45,000  Level Jacksonville Center
05:36PM 32.0153 -78.0978 199° South 446 513 45,000  Level Jacksonville Center
05:37PM 31.8983 -78.1531 202° Southwest 451 519 45,000  Level Jacksonville Center
05:38PM 31.7811 -78.1981 198° South 451 519 45,000  Level Jacksonville Center
05:39PM 31.6619 -78.2506 201° Southwest 451 519 45,000  Level Jacksonville Center
05:40PM 31.5472 -78.3097 204° Southwest 458 527 45,000  Level Jacksonville Center
05:41PM 31.4300 -78.3594 200° South 458 527 45,000  Level Jacksonville Center
05:42PM 31.3147 -78.4086 200° South 453 521 45,000  Level Jacksonville Center
05:43PM 31.1914 -78.4608 200° South 459 528 45,000  Level Jacksonville Center
05:44PM 31.0764 -78.5122 201° Southwest 459 528 45,000  Level Jacksonville Center
05:45PM 30.9589 -78.5589 199° South 452 520 45,000  Level Jacksonville Center
05:46PM 30.8375 -78.6103 200° South 457 526 45,000  Level Jacksonville Center
05:47PM 30.7222 -78.6592 200° South 457 526 45,000  Level Jacksonville Center
05:48PM 30.5808 -78.7153 199° South 451 519 45,000  Level Miami Center
05:49PM 30.4575 -78.7517 194° South 451 519 45,000  Level Miami Center
05:50PM 30.3300 -78.7806 191° South 457 526 45,000  Level Miami Center
05:51PM 30.1981 -78.8117 192° South 464 534 45,000  Level Miami Center
05:52PM 30.0747 -78.8431 192° South 470 541 45,000  Level Miami Center
05:53PM 29.9428 -78.8836 195° South 461 531 45,000  Level Miami Center
05:54PM 29.8194 -78.9147 192° South 461 531 45,000 -60 Level Miami Center
05:55PM 29.6917 -78.9458 192° South 462 532 44,900 -780 Descending Miami Center
05:56PM 29.5581 -78.9647 187° South 468 539 43,500 -1,380 Descending Miami Center
05:57PM 29.4408 -78.9958 193° South 468 539 42,200 -1,380 Descending Miami Center
05:58PM 29.3214 -79.0244 192° South 452 520 40,800 -1,560 Descending Miami Center
05:59PM 29.2019 -79.0556 193° South 440 506 39,100 -1,740 Descending Miami Center
06:00PM 29.0681 -79.0836 190° South 457 526 37,400 -1,800 Descending Miami Center
06:01PM 28.9403 -79.1142 192° South 479 551 35,600 -1,560 Descending Miami Center
06:02PM 28.8208 -79.1403 191° South 485 558 34,300 -1,500 Descending Miami Center
06:03PM 28.6911 -79.1708 192° South 485 558 32,600 -1,740 Descending Miami Center
06:04PM 28.5592 -79.2011 191° South 485 558 30,900 -1,800 Descending Miami Center
06:05PM 28.4250 -79.2314 191° South 490 564 29,100 -1,800 Descending Miami Center
06:06PM 28.2908 -79.2639 192° South 490 564 27,400 -1,740 Descending Miami Center
06:07PM 28.1589 -79.2894 190° South 485 558 25,700 -1,620 Descending Miami Center
06:08PM 28.0478 -79.3200 194° South 455 524 24,200 -1,680 Descending Miami Center
06:09PM 27.9464 -79.3836 209° Southwest 414 476 22,400 -1,920 Descending Miami Center
06:10PM 27.8411 -79.4469 208° Southwest 407 468 20,400 -1,860 Descending Miami Center
06:11PM 27.7397 -79.5103 209° Southwest 412 474 18,700 -1,680 Descending Miami Center
06:12PM 27.6403 -79.5714 209° Southwest 412 474 17,100 -1,680 Descending Miami Center
06:13PM 27.5581 -79.6208 208° Southwest 391 450 15,400 -1,680 Descending Miami Center
06:14PM 27.4650 -79.6794 209° Southwest 385 443 13,800 -1,740 Descending Miami Center
06:15PM 27.3656 -79.7403 209° Southwest 378 435 12,000 -1,740 Descending Miami Center
06:16PM 27.2769 -79.7942 208° Southwest 378 435 10,400 -1,560 Descending Miami Center
06:17PM 27.1922 -79.8458 208° Southwest 373 429 8,900 -1,440 Descending Miami Center
06:18PM 27.1225 -79.8883 208° Southwest 335 386 7,600 -1,380 Descending Miami Center
06:19PM 27.0669 -79.9475 223° Southwest 306 352 6,200 -1,500 Descending Miami Center
06:20PM 26.9969 -79.9969 212° Southwest 280 322 4,700 -1,140 Descending Miami Center
06:21PM 26.9314 -80.0394 210° Southwest 280 322 4,000 -600 Descending Miami Center
06:22PM 26.8656 -80.0819 210° Southwest 280 322 3,600 -780 Descending Miami Center
06:23PM 26.8106 -80.1200 212° Southwest 273 314 2,500 -1,020 Descending Miami Center
06:24PM 26.7469 -80.1553 206° Southwest 254 292 1,600 -900 Descending Miami Center
06:26PM 26.6832 -80.0956 282° West  Level Estimated
06:33PM 26.6832 -80.0956 110° East  Level Estimated
06:34PM 26.6832 -80.0956 110° East  Level Estimated
06:35PM 26.6832 -80.0956 110° East  Level Estimated